sensor_id;sensor_type;location;lat;lon;timestamp;P1;durP1;ratioP1;P2;durP2;ratioP2
41568;SDS011;27283;52.504;13.358;2023-08-31T00:02:15;5.50;;;4.22;;
41568;SDS011;27283;52.504;13.358;2023-08-31T00:04:51;6.18;;;4.40;;
41568;SDS011;27283;52.504;13.358;2023-08-31T00:07:27;8.35;;;4.72;;
41568;SDS011;27283;52.504;13.358;2023-08-31T00:10:00;6.32;;;4.45;;
41568;SDS011;27283;52.504;13.358;2023-08-31T00:12:38;7.28;;;4.50;;
41568;SDS011;27283;52.504;13.358;2023-08-31T00:15:11;6.55;;;4.45;;
41568;SDS011;27283;52.504;13.358;2023-08-31T00:17:45;5.90;;;4.55;;
41568;SDS011;27283;52.504;13.358;2023-08-31T00:20:21;7.50;;;4.53;;
41568;SDS011;27283;52.504;13.358;2023-08-31T00:23:00;5.50;;;4.68;;
41568;SDS011;27283;52.504;13.358;2023-08-31T00:25:32;6.32;;;4.53;;
41568;SDS011;27283;52.504;13.358;2023-08-31T00:28:05;6.38;;;4.43;;
41568;SDS011;27283;52.504;13.358;2023-08-31T00:30:38;6.38;;;4.53;;
41568;SDS011;27283;52.504;13.358;2023-08-31T00:33:13;7.28;;;4.50;;
41568;SDS011;27283;52.504;13.358;2023-08-31T00:35:46;5.93;;;4.28;;
41568;SDS011;27283;52.504;13.358;2023-08-31T00:38:22;5.88;;;4.35;;
41568;SDS011;27283;52.504;13.358;2023-08-31T00:40:54;8.38;;;5.00;;
41568;SDS011;27283;52.504;13.358;2023-08-31T00:43:29;6.78;;;4.10;;
41568;SDS011;27283;52.504;13.358;2023-08-31T00:46:02;6.18;;;4.47;;
41568;SDS011;27283;52.504;13.358;2023-08-31T00:48:35;9.75;;;4.53;;
41568;SDS011;27283;52.504;13.358;2023-08-31T00:51:10;7.18;;;4.70;;
41568;SDS011;27283;52.504;13.358;2023-08-31T00:53:45;7.28;;;4.25;;
41568;SDS011;27283;52.504;13.358;2023-08-31T00:56:22;5.55;;;4.45;;
41568;SDS011;27283;52.504;13.358;2023-08-31T00:58:55;8.25;;;4.40;;
41568;SDS011;27283;52.504;13.358;2023-08-31T01:01:31;6.40;;;4.45;;
41568;SDS011;27283;52.504;13.358;2023-08-31T01:04:13;7.35;;;4.55;;
41568;SDS011;27283;52.504;13.358;2023-08-31T01:06:53;7.47;;;5.05;;
41568;SDS011;27283;52.504;13.358;2023-08-31T01:09:43;6.38;;;4.55;;
41568;SDS011;27283;52.504;13.358;2023-08-31T01:12:28;9.40;;;5.65;;
41568;SDS011;27283;52.504;13.358;2023-08-31T01:15:12;8.73;;;5.65;;
41568;SDS011;27283;52.504;13.358;2023-08-31T01:17:46;9.55;;;6.30;;
41568;SDS011;27283;52.504;13.358;2023-08-31T01:20:26;10.05;;;6.70;;
41568;SDS011;27283;52.504;13.358;2023-08-31T01:23:09;9.57;;;6.78;;
41568;SDS011;27283;52.504;13.358;2023-08-31T01:25:50;9.02;;;6.90;;
41568;SDS011;27283;52.504;13.358;2023-08-31T01:28:23;9.48;;;6.68;;
41568;SDS011;27283;52.504;13.358;2023-08-31T01:30:57;14.05;;;6.82;;
41568;SDS011;27283;52.504;13.358;2023-08-31T01:33:30;9.60;;;6.72;;
41568;SDS011;27283;52.504;13.358;2023-08-31T01:36:04;11.40;;;6.60;;
41568;SDS011;27283;52.504;13.358;2023-08-31T01:38:44;8.43;;;5.95;;
41568;SDS011;27283;52.504;13.358;2023-08-31T01:41:24;7.63;;;5.20;;
41568;SDS011;27283;52.504;13.358;2023-08-31T01:44:00;8.40;;;5.15;;
41568;SDS011;27283;52.504;13.358;2023-08-31T01:46:34;6.57;;;4.95;;
41568;SDS011;27283;52.504;13.358;2023-08-31T01:49:07;6.22;;;4.22;;
41568;SDS011;27283;52.504;13.358;2023-08-31T01:51:43;6.32;;;4.43;;
41568;SDS011;27283;52.504;13.358;2023-08-31T01:54:16;7.18;;;4.80;;
41568;SDS011;27283;52.504;13.358;2023-08-31T01:56:52;6.07;;;4.50;;
41568;SDS011;27283;52.504;13.358;2023-08-31T01:59:25;6.30;;;4.07;;
41568;SDS011;27283;52.504;13.358;2023-08-31T02:01:59;5.82;;;4.63;;
41568;SDS011;27283;52.504;13.358;2023-08-31T02:04:33;9.30;;;4.82;;
41568;SDS011;27283;52.504;13.358;2023-08-31T02:07:06;8.02;;;5.10;;
41568;SDS011;27283;52.504;13.358;2023-08-31T02:09:39;7.43;;;4.90;;
41568;SDS011;27283;52.504;13.358;2023-08-31T02:12:15;5.82;;;4.57;;
41568;SDS011;27283;52.504;13.358;2023-08-31T02:14:48;5.53;;;3.83;;
41568;SDS011;27283;52.504;13.358;2023-08-31T02:17:22;5.90;;;4.00;;
41568;SDS011;27283;52.504;13.358;2023-08-31T02:19:54;6.22;;;4.20;;
41568;SDS011;27283;52.504;13.358;2023-08-31T02:22:29;5.55;;;4.10;;
41568;SDS011;27283;52.504;13.358;2023-08-31T02:25:03;7.03;;;3.83;;
41568;SDS011;27283;52.504;13.358;2023-08-31T02:27:43;5.75;;;3.95;;
41568;SDS011;27283;52.504;13.358;2023-08-31T02:30:18;5.63;;;3.97;;
41568;SDS011;27283;52.504;13.358;2023-08-31T02:32:51;6.25;;;3.65;;
41568;SDS011;27283;52.504;13.358;2023-08-31T02:35:24;5.72;;;3.63;;
41568;SDS011;27283;52.504;13.358;2023-08-31T02:37:57;6.40;;;4.00;;
41568;SDS011;27283;52.504;13.358;2023-08-31T02:40:30;5.53;;;3.78;;
41568;SDS011;27283;52.504;13.358;2023-08-31T02:43:05;6.88;;;4.20;;
41568;SDS011;27283;52.504;13.358;2023-08-31T02:45:40;8.13;;;4.28;;
41568;SDS011;27283;52.504;13.358;2023-08-31T02:48:15;7.43;;;4.10;;
41568;SDS011;27283;52.504;13.358;2023-08-31T02:50:49;6.35;;;3.85;;
41568;SDS011;27283;52.504;13.358;2023-08-31T02:53:24;4.93;;;3.72;;
41568;SDS011;27283;52.504;13.358;2023-08-31T02:55:57;5.70;;;4.18;;
41568;SDS011;27283;52.504;13.358;2023-08-31T02:58:34;6.85;;;3.53;;
41568;SDS011;27283;52.504;13.358;2023-08-31T03:01:08;6.13;;;3.50;;
41568;SDS011;27283;52.504;13.358;2023-08-31T03:03:43;4.93;;;3.60;;
41568;SDS011;27283;52.504;13.358;2023-08-31T03:06:17;5.70;;;3.40;;
41568;SDS011;27283;52.504;13.358;2023-08-31T03:08:51;4.82;;;3.33;;
41568;SDS011;27283;52.504;13.358;2023-08-31T03:11:24;5.78;;;3.60;;
41568;SDS011;27283;52.504;13.358;2023-08-31T03:14:00;5.22;;;3.10;;
41568;SDS011;27283;52.504;13.358;2023-08-31T03:16:34;5.50;;;3.45;;
41568;SDS011;27283;52.504;13.358;2023-08-31T03:19:08;5.57;;;3.38;;
41568;SDS011;27283;52.504;13.358;2023-08-31T03:21:40;9.30;;;4.18;;
41568;SDS011;27283;52.504;13.358;2023-08-31T03:24:14;5.18;;;3.45;;
41568;SDS011;27283;52.504;13.358;2023-08-31T03:26:47;5.82;;;3.63;;
41568;SDS011;27283;52.504;13.358;2023-08-31T03:29:23;6.35;;;3.70;;
41568;SDS011;27283;52.504;13.358;2023-08-31T03:32:00;5.63;;;3.58;;
41568;SDS011;27283;52.504;13.358;2023-08-31T03:34:34;5.25;;;3.40;;
41568;SDS011;27283;52.504;13.358;2023-08-31T03:37:08;8.48;;;3.63;;
41568;SDS011;27283;52.504;13.358;2023-08-31T03:39:42;6.50;;;3.40;;
41568;SDS011;27283;52.504;13.358;2023-08-31T03:42:15;5.05;;;3.67;;
41568;SDS011;27283;52.504;13.358;2023-08-31T03:44:52;5.57;;;3.88;;
41568;SDS011;27283;52.504;13.358;2023-08-31T03:47:25;5.07;;;3.70;;
41568;SDS011;27283;52.504;13.358;2023-08-31T03:49:59;6.10;;;3.97;;
41568;SDS011;27283;52.504;13.358;2023-08-31T03:52:33;6.82;;;4.40;;
41568;SDS011;27283;52.504;13.358;2023-08-31T03:55:06;6.65;;;4.20;;
41568;SDS011;27283;52.504;13.358;2023-08-31T03:57:40;8.13;;;5.20;;
41568;SDS011;27283;52.504;13.358;2023-08-31T04:00:21;8.93;;;5.55;;
41568;SDS011;27283;52.504;13.358;2023-08-31T04:02:59;9.02;;;5.65;;
41568;SDS011;27283;52.504;13.358;2023-08-31T04:05:33;11.95;;;6.40;;
41568;SDS011;27283;52.504;13.358;2023-08-31T04:08:06;10.80;;;6.63;;
41568;SDS011;27283;52.504;13.358;2023-08-31T04:10:38;12.23;;;6.95;;
41568;SDS011;27283;52.504;13.358;2023-08-31T04:13:11;10.95;;;6.82;;
41568;SDS011;27283;52.504;13.358;2023-08-31T04:15:46;12.02;;;7.07;;
41568;SDS011;27283;52.504;13.358;2023-08-31T04:18:19;12.48;;;6.82;;
41568;SDS011;27283;52.504;13.358;2023-08-31T04:20:52;16.40;;;7.95;;
41568;SDS011;27283;52.504;13.358;2023-08-31T04:26:19;14.82;;;8.77;;
41568;SDS011;27283;52.504;13.358;2023-08-31T04:28:52;15.10;;;8.73;;
41568;SDS011;27283;52.504;13.358;2023-08-31T04:31:28;15.00;;;8.77;;
41568;SDS011;27283;52.504;13.358;2023-08-31T04:34:00;17.35;;;9.93;;
41568;SDS011;27283;52.504;13.358;2023-08-31T04:36:33;16.17;;;8.90;;
41568;SDS011;27283;52.504;13.358;2023-08-31T04:39:07;15.88;;;9.02;;
41568;SDS011;27283;52.504;13.358;2023-08-31T04:41:41;15.18;;;9.45;;
41568;SDS011;27283;52.504;13.358;2023-08-31T04:44:15;15.30;;;9.50;;
41568;SDS011;27283;52.504;13.358;2023-08-31T04:46:52;15.38;;;9.90;;
41568;SDS011;27283;52.504;13.358;2023-08-31T04:49:27;20.60;;;10.95;;
41568;SDS011;27283;52.504;13.358;2023-08-31T04:52:01;18.65;;;10.77;;
41568;SDS011;27283;52.504;13.358;2023-08-31T04:54:35;22.98;;;11.65;;
41568;SDS011;27283;52.504;13.358;2023-08-31T04:57:15;22.00;;;12.63;;
41568;SDS011;27283;52.504;13.358;2023-08-31T04:59:49;20.58;;;11.45;;
41568;SDS011;27283;52.504;13.358;2023-08-31T05:02:26;22.20;;;12.15;;
41568;SDS011;27283;52.504;13.358;2023-08-31T05:05:01;24.15;;;12.32;;
41568;SDS011;27283;52.504;13.358;2023-08-31T05:07:38;22.98;;;11.77;;
41568;SDS011;27283;52.504;13.358;2023-08-31T05:10:14;21.67;;;11.20;;
41568;SDS011;27283;52.504;13.358;2023-08-31T05:12:50;21.27;;;11.77;;
41568;SDS011;27283;52.504;13.358;2023-08-31T05:15:24;22.58;;;11.90;;
41568;SDS011;27283;52.504;13.358;2023-08-31T05:18:04;21.63;;;11.52;;
41568;SDS011;27283;52.504;13.358;2023-08-31T05:20:38;19.23;;;10.90;;
41568;SDS011;27283;52.504;13.358;2023-08-31T05:23:12;20.50;;;10.82;;
41568;SDS011;27283;52.504;13.358;2023-08-31T05:25:45;20.65;;;11.40;;
41568;SDS011;27283;52.504;13.358;2023-08-31T05:28:19;19.17;;;11.68;;
41568;SDS011;27283;52.504;13.358;2023-08-31T05:30:56;23.40;;;11.10;;
41568;SDS011;27283;52.504;13.358;2023-08-31T05:33:32;18.20;;;11.32;;
41568;SDS011;27283;52.504;13.358;2023-08-31T05:36:05;19.90;;;11.57;;
41568;SDS011;27283;52.504;13.358;2023-08-31T05:38:38;24.98;;;12.40;;
41568;SDS011;27283;52.504;13.358;2023-08-31T05:41:11;19.17;;;11.30;;
41568;SDS011;27283;52.504;13.358;2023-08-31T05:43:47;19.33;;;11.32;;
41568;SDS011;27283;52.504;13.358;2023-08-31T05:46:19;22.30;;;12.38;;
41568;SDS011;27283;52.504;13.358;2023-08-31T05:48:56;23.38;;;12.35;;
41568;SDS011;27283;52.504;13.358;2023-08-31T05:51:28;26.08;;;12.30;;
41568;SDS011;27283;52.504;13.358;2023-08-31T05:54:01;23.42;;;12.68;;
41568;SDS011;27283;52.504;13.358;2023-08-31T05:56:34;21.55;;;12.38;;
41568;SDS011;27283;52.504;13.358;2023-08-31T05:59:08;25.25;;;12.65;;
41568;SDS011;27283;52.504;13.358;2023-08-31T06:01:40;23.35;;;12.40;;
41568;SDS011;27283;52.504;13.358;2023-08-31T06:04:16;24.30;;;12.10;;
41568;SDS011;27283;52.504;13.358;2023-08-31T06:06:48;20.02;;;11.48;;
41568;SDS011;27283;52.504;13.358;2023-08-31T06:09:22;19.35;;;12.07;;
41568;SDS011;27283;52.504;13.358;2023-08-31T06:11:54;16.55;;;10.13;;
41568;SDS011;27283;52.504;13.358;2023-08-31T06:14:28;20.83;;;10.88;;
41568;SDS011;27283;52.504;13.358;2023-08-31T06:17:01;19.30;;;10.93;;
41568;SDS011;27283;52.504;13.358;2023-08-31T06:19:40;21.58;;;11.40;;
41568;SDS011;27283;52.504;13.358;2023-08-31T06:22:15;22.45;;;11.45;;
41568;SDS011;27283;52.504;13.358;2023-08-31T06:25:08;15.95;;;10.18;;
41568;SDS011;27283;52.504;13.358;2023-08-31T06:27:44;15.93;;;9.98;;
41568;SDS011;27283;52.504;13.358;2023-08-31T06:30:17;16.80;;;10.30;;
41568;SDS011;27283;52.504;13.358;2023-08-31T06:32:50;18.40;;;10.40;;
41568;SDS011;27283;52.504;13.358;2023-08-31T06:35:27;16.70;;;10.82;;
41568;SDS011;27283;52.504;13.358;2023-08-31T06:38:03;17.15;;;10.75;;
41568;SDS011;27283;52.504;13.358;2023-08-31T06:40:36;18.95;;;10.55;;
41568;SDS011;27283;52.504;13.358;2023-08-31T06:43:09;16.80;;;10.88;;
41568;SDS011;27283;52.504;13.358;2023-08-31T06:45:42;15.57;;;10.40;;
41568;SDS011;27283;52.504;13.358;2023-08-31T06:48:15;18.08;;;10.45;;
41568;SDS011;27283;52.504;13.358;2023-08-31T06:50:51;18.50;;;10.68;;
41568;SDS011;27283;52.504;13.358;2023-08-31T06:53:25;15.55;;;9.90;;
41568;SDS011;27283;52.504;13.358;2023-08-31T06:55:58;19.13;;;10.90;;
41568;SDS011;27283;52.504;13.358;2023-08-31T06:58:31;15.38;;;9.95;;
41568;SDS011;27283;52.504;13.358;2023-08-31T07:01:08;16.38;;;9.15;;
41568;SDS011;27283;52.504;13.358;2023-08-31T07:03:41;16.30;;;9.55;;
41568;SDS011;27283;52.504;13.358;2023-08-31T07:06:19;13.73;;;9.13;;
41568;SDS011;27283;52.504;13.358;2023-08-31T07:08:51;19.50;;;9.90;;
41568;SDS011;27283;52.504;13.358;2023-08-31T07:11:24;15.88;;;9.50;;
41568;SDS011;27283;52.504;13.358;2023-08-31T07:13:56;16.33;;;9.60;;
41568;SDS011;27283;52.504;13.358;2023-08-31T07:16:29;16.98;;;9.10;;
41568;SDS011;27283;52.504;13.358;2023-08-31T07:19:03;14.07;;;8.98;;
41568;SDS011;27283;52.504;13.358;2023-08-31T07:21:41;16.77;;;9.20;;
41568;SDS011;27283;52.504;13.358;2023-08-31T07:24:16;14.02;;;8.75;;
41568;SDS011;27283;52.504;13.358;2023-08-31T07:26:49;17.40;;;8.35;;
41568;SDS011;27283;52.504;13.358;2023-08-31T07:29:22;14.20;;;8.13;;
41568;SDS011;27283;52.504;13.358;2023-08-31T07:31:56;15.80;;;7.65;;
41568;SDS011;27283;52.504;13.358;2023-08-31T07:34:33;14.93;;;7.75;;
41568;SDS011;27283;52.504;13.358;2023-08-31T07:37:10;14.25;;;7.82;;
41568;SDS011;27283;52.504;13.358;2023-08-31T07:39:43;14.80;;;8.48;;
41568;SDS011;27283;52.504;13.358;2023-08-31T07:42:16;17.92;;;8.60;;
41568;SDS011;27283;52.504;13.358;2023-08-31T07:44:50;18.23;;;8.45;;
41568;SDS011;27283;52.504;13.358;2023-08-31T07:47:24;15.20;;;8.00;;
41568;SDS011;27283;52.504;13.358;2023-08-31T07:50:01;13.57;;;7.90;;
41568;SDS011;27283;52.504;13.358;2023-08-31T07:52:39;11.85;;;7.15;;
41568;SDS011;27283;52.504;13.358;2023-08-31T07:55:12;12.65;;;7.30;;
41568;SDS011;27283;52.504;13.358;2023-08-31T07:57:46;10.55;;;5.93;;
41568;SDS011;27283;52.504;13.358;2023-08-31T08:00:19;10.18;;;6.38;;
41568;SDS011;27283;52.504;13.358;2023-08-31T08:02:52;10.07;;;6.15;;
41568;SDS011;27283;52.504;13.358;2023-08-31T08:05:25;12.05;;;6.20;;
41568;SDS011;27283;52.504;13.358;2023-08-31T08:08:04;9.35;;;5.38;;
41568;SDS011;27283;52.504;13.358;2023-08-31T08:10:40;9.38;;;5.00;;
41568;SDS011;27283;52.504;13.358;2023-08-31T08:13:13;14.68;;;5.10;;
41568;SDS011;27283;52.504;13.358;2023-08-31T08:15:47;7.35;;;4.68;;
41568;SDS011;27283;52.504;13.358;2023-08-31T08:18:20;6.82;;;4.05;;
41568;SDS011;27283;52.504;13.358;2023-08-31T08:20:53;10.23;;;4.47;;
41568;SDS011;27283;52.504;13.358;2023-08-31T08:23:33;8.82;;;4.05;;
41568;SDS011;27283;52.504;13.358;2023-08-31T08:26:11;9.18;;;4.45;;
41568;SDS011;27283;52.504;13.358;2023-08-31T08:28:46;11.85;;;4.15;;
41568;SDS011;27283;52.504;13.358;2023-08-31T08:31:20;9.00;;;3.75;;
41568;SDS011;27283;52.504;13.358;2023-08-31T08:34:00;10.02;;;3.40;;
41568;SDS011;27283;52.504;13.358;2023-08-31T08:36:48;8.48;;;2.85;;
41568;SDS011;27283;52.504;13.358;2023-08-31T08:40:13;7.82;;;2.63;;
41568;SDS011;27283;52.504;13.358;2023-08-31T08:42:48;6.68;;;2.53;;
41568;SDS011;27283;52.504;13.358;2023-08-31T08:45:26;10.80;;;2.80;;
41568;SDS011;27283;52.504;13.358;2023-08-31T08:48:09;5.72;;;2.50;;
41568;SDS011;27283;52.504;13.358;2023-08-31T08:50:43;4.45;;;2.30;;
41568;SDS011;27283;52.504;13.358;2023-08-31T08:53:18;9.88;;;2.92;;
41568;SDS011;27283;52.504;13.358;2023-08-31T08:55:55;6.78;;;2.70;;
41568;SDS011;27283;52.504;13.358;2023-08-31T08:58:29;5.88;;;2.60;;
41568;SDS011;27283;52.504;13.358;2023-08-31T09:01:04;6.68;;;2.80;;
41568;SDS011;27283;52.504;13.358;2023-08-31T09:03:40;5.25;;;3.08;;
41568;SDS011;27283;52.504;13.358;2023-08-31T09:06:15;4.43;;;2.55;;
41568;SDS011;27283;52.504;13.358;2023-08-31T09:08:56;4.53;;;2.17;;
41568;SDS011;27283;52.504;13.358;2023-08-31T09:11:46;6.65;;;2.80;;
41568;SDS011;27283;52.504;13.358;2023-08-31T09:14:29;8.27;;;2.33;;
41568;SDS011;27283;52.504;13.358;2023-08-31T09:17:03;5.50;;;2.33;;
41568;SDS011;27283;52.504;13.358;2023-08-31T09:19:38;6.95;;;1.95;;
41568;SDS011;27283;52.504;13.358;2023-08-31T09:22:13;5.50;;;2.00;;
41568;SDS011;27283;52.504;13.358;2023-08-31T09:24:47;5.00;;;2.00;;
41568;SDS011;27283;52.504;13.358;2023-08-31T09:27:25;3.17;;;1.77;;
41568;SDS011;27283;52.504;13.358;2023-08-31T09:30:00;8.73;;;2.10;;
41568;SDS011;27283;52.504;13.358;2023-08-31T09:32:33;9.82;;;2.33;;
41568;SDS011;27283;52.504;13.358;2023-08-31T09:35:08;9.13;;;2.30;;
41568;SDS011;27283;52.504;13.358;2023-08-31T09:37:55;8.25;;;2.40;;
41568;SDS011;27283;52.504;13.358;2023-08-31T09:40:31;9.95;;;2.08;;
41568;SDS011;27283;52.504;13.358;2023-08-31T09:43:07;7.32;;;2.20;;
41568;SDS011;27283;52.504;13.358;2023-08-31T09:45:41;3.63;;;1.70;;
41568;SDS011;27283;52.504;13.358;2023-08-31T09:48:15;8.07;;;2.22;;
41568;SDS011;27283;52.504;13.358;2023-08-31T09:50:49;4.45;;;1.75;;
41568;SDS011;27283;52.504;13.358;2023-08-31T09:53:25;5.35;;;1.98;;
41568;SDS011;27283;52.504;13.358;2023-08-31T09:56:01;7.78;;;1.88;;
41568;SDS011;27283;52.504;13.358;2023-08-31T09:58:40;7.22;;;1.85;;
41568;SDS011;27283;52.504;13.358;2023-08-31T10:01:12;6.43;;;1.60;;
41568;SDS011;27283;52.504;13.358;2023-08-31T10:03:57;5.93;;;1.67;;
41568;SDS011;27283;52.504;13.358;2023-08-31T10:06:33;6.25;;;2.20;;
41568;SDS011;27283;52.504;13.358;2023-08-31T10:09:07;5.93;;;1.73;;
41568;SDS011;27283;52.504;13.358;2023-08-31T10:11:42;4.32;;;1.48;;
41568;SDS011;27283;52.504;13.358;2023-08-31T10:14:19;7.75;;;1.85;;
41568;SDS011;27283;52.504;13.358;2023-08-31T10:16:57;7.40;;;1.60;;
41568;SDS011;27283;52.504;13.358;2023-08-31T10:19:30;4.05;;;1.42;;
41568;SDS011;27283;52.504;13.358;2023-08-31T10:22:03;4.07;;;1.60;;
41568;SDS011;27283;52.504;13.358;2023-08-31T10:27:36;3.50;;;1.27;;
41568;SDS011;27283;52.504;13.358;2023-08-31T10:30:24;4.60;;;1.67;;
41568;SDS011;27283;52.504;13.358;2023-08-31T10:33:03;5.28;;;1.70;;
41568;SDS011;27283;52.504;13.358;2023-08-31T10:35:55;4.15;;;1.42;;
41568;SDS011;27283;52.504;13.358;2023-08-31T10:38:29;4.90;;;1.80;;
41568;SDS011;27283;52.504;13.358;2023-08-31T10:43:56;3.28;;;1.67;;
41568;SDS011;27283;52.504;13.358;2023-08-31T10:46:34;6.25;;;1.90;;
41568;SDS011;27283;52.504;13.358;2023-08-31T10:49:14;5.07;;;1.77;;
41568;SDS011;27283;52.504;13.358;2023-08-31T10:51:49;4.75;;;1.80;;
41568;SDS011;27283;52.504;13.358;2023-08-31T10:54:26;6.30;;;1.95;;
41568;SDS011;27283;52.504;13.358;2023-08-31T10:57:06;4.88;;;1.95;;
41568;SDS011;27283;52.504;13.358;2023-08-31T10:59:43;6.70;;;2.40;;
41568;SDS011;27283;52.504;13.358;2023-08-31T11:05:08;6.18;;;2.83;;
41568;SDS011;27283;52.504;13.358;2023-08-31T11:07:46;6.05;;;2.35;;
41568;SDS011;27283;52.504;13.358;2023-08-31T11:10:22;3.90;;;2.38;;
41568;SDS011;27283;52.504;13.358;2023-08-31T11:13:01;7.65;;;2.50;;
41568;SDS011;27283;52.504;13.358;2023-08-31T11:15:34;5.47;;;2.03;;
41568;SDS011;27283;52.504;13.358;2023-08-31T11:18:10;5.15;;;1.90;;
41568;SDS011;27283;52.504;13.358;2023-08-31T11:20:47;4.68;;;1.90;;
41568;SDS011;27283;52.504;13.358;2023-08-31T11:23:20;4.68;;;1.65;;
41568;SDS011;27283;52.504;13.358;2023-08-31T11:25:53;3.92;;;1.70;;
41568;SDS011;27283;52.504;13.358;2023-08-31T11:28:25;7.13;;;1.80;;
41568;SDS011;27283;52.504;13.358;2023-08-31T11:31:04;5.65;;;2.03;;
41568;SDS011;27283;52.504;13.358;2023-08-31T11:33:39;5.85;;;2.00;;
41568;SDS011;27283;52.504;13.358;2023-08-31T11:36:12;5.80;;;2.28;;
41568;SDS011;27283;52.504;13.358;2023-08-31T11:38:47;4.75;;;1.92;;
41568;SDS011;27283;52.504;13.358;2023-08-31T11:41:24;7.05;;;2.40;;
41568;SDS011;27283;52.504;13.358;2023-08-31T11:43:57;4.18;;;2.55;;
41568;SDS011;27283;52.504;13.358;2023-08-31T11:46:29;8.15;;;2.50;;
41568;SDS011;27283;52.504;13.358;2023-08-31T11:49:08;7.40;;;3.22;;
41568;SDS011;27283;52.504;13.358;2023-08-31T11:51:42;7.65;;;3.20;;
41568;SDS011;27283;52.504;13.358;2023-08-31T11:54:19;10.15;;;3.35;;
41568;SDS011;27283;52.504;13.358;2023-08-31T11:56:53;7.75;;;3.70;;
41568;SDS011;27283;52.504;13.358;2023-08-31T11:59:35;8.98;;;3.55;;
41568;SDS011;27283;52.504;13.358;2023-08-31T12:05:22;9.40;;;4.68;;
41568;SDS011;27283;52.504;13.358;2023-08-31T12:08:16;6.50;;;4.47;;
41568;SDS011;27283;52.504;13.358;2023-08-31T12:11:09;8.85;;;3.85;;
41568;SDS011;27283;52.504;13.358;2023-08-31T12:13:46;9.40;;;3.20;;
41568;SDS011;27283;52.504;13.358;2023-08-31T12:16:19;8.02;;;3.63;;
41568;SDS011;27283;52.504;13.358;2023-08-31T12:18:52;8.20;;;3.90;;
41568;SDS011;27283;52.504;13.358;2023-08-31T12:21:29;9.90;;;3.83;;
41568;SDS011;27283;52.504;13.358;2023-08-31T12:24:20;6.47;;;3.20;;
41568;SDS011;27283;52.504;13.358;2023-08-31T12:27:31;7.00;;;3.40;;
41568;SDS011;27283;52.504;13.358;2023-08-31T12:30:22;8.02;;;3.83;;
41568;SDS011;27283;52.504;13.358;2023-08-31T12:32:55;8.50;;;3.47;;
41568;SDS011;27283;52.504;13.358;2023-08-31T12:35:30;8.63;;;3.60;;
41568;SDS011;27283;52.504;13.358;2023-08-31T12:38:08;6.90;;;3.67;;
41568;SDS011;27283;52.504;13.358;2023-08-31T12:40:43;9.52;;;3.90;;
41568;SDS011;27283;52.504;13.358;2023-08-31T12:43:24;9.25;;;4.95;;
41568;SDS011;27283;52.504;13.358;2023-08-31T12:45:56;11.95;;;4.35;;
41568;SDS011;27283;52.504;13.358;2023-08-31T12:48:29;10.93;;;3.88;;
41568;SDS011;27283;52.504;13.358;2023-08-31T12:51:06;7.20;;;3.80;;
41568;SDS011;27283;52.504;13.358;2023-08-31T12:56:52;4.93;;;2.70;;
41568;SDS011;27283;52.504;13.358;2023-08-31T12:59:31;6.75;;;3.03;;
41568;SDS011;27283;52.504;13.358;2023-08-31T13:02:04;4.38;;;2.40;;
41568;SDS011;27283;52.504;13.358;2023-08-31T13:04:45;7.78;;;1.98;;
41568;SDS011;27283;52.504;13.358;2023-08-31T13:07:20;4.00;;;2.30;;
41568;SDS011;27283;52.504;13.358;2023-08-31T13:10:15;2.58;;;1.70;;
41568;SDS011;27283;52.504;13.358;2023-08-31T13:12:48;3.88;;;1.55;;
41568;SDS011;27283;52.504;13.358;2023-08-31T13:15:27;2.42;;;1.60;;
41568;SDS011;27283;52.504;13.358;2023-08-31T13:18:15;2.28;;;1.50;;
41568;SDS011;27283;52.504;13.358;2023-08-31T13:21:30;2.97;;;1.58;;
41568;SDS011;27283;52.504;13.358;2023-08-31T13:24:25;4.00;;;1.55;;
41568;SDS011;27283;52.504;13.358;2023-08-31T13:27:05;2.92;;;1.50;;
41568;SDS011;27283;52.504;13.358;2023-08-31T13:29:53;5.30;;;1.70;;
41568;SDS011;27283;52.504;13.358;2023-08-31T13:32:53;2.75;;;1.70;;
41568;SDS011;27283;52.504;13.358;2023-08-31T13:35:25;2.33;;;1.50;;
41568;SDS011;27283;52.504;13.358;2023-08-31T13:37:59;2.75;;;1.65;;
41568;SDS011;27283;52.504;13.358;2023-08-31T13:41:12;3.63;;;1.80;;
41568;SDS011;27283;52.504;13.358;2023-08-31T13:44:02;5.35;;;2.20;;
41568;SDS011;27283;52.504;13.358;2023-08-31T13:46:53;3.55;;;2.10;;
41568;SDS011;27283;52.504;13.358;2023-08-31T13:49:30;6.15;;;4.05;;
41568;SDS011;27283;52.504;13.358;2023-08-31T13:52:24;6.53;;;3.63;;
41568;SDS011;27283;52.504;13.358;2023-08-31T13:55:46;5.05;;;2.42;;
41568;SDS011;27283;52.504;13.358;2023-08-31T13:58:26;2.70;;;1.80;;
41568;SDS011;27283;52.504;13.358;2023-08-31T14:01:10;5.15;;;2.08;;
41568;SDS011;27283;52.504;13.358;2023-08-31T14:03:44;5.22;;;1.75;;
41568;SDS011;27283;52.504;13.358;2023-08-31T14:06:18;2.75;;;1.73;;
41568;SDS011;27283;52.504;13.358;2023-08-31T14:08:53;2.75;;;1.60;;
41568;SDS011;27283;52.504;13.358;2023-08-31T14:14:57;3.40;;;2.00;;
41568;SDS011;27283;52.504;13.358;2023-08-31T14:17:34;4.00;;;1.90;;
41568;SDS011;27283;52.504;13.358;2023-08-31T14:20:20;2.67;;;1.80;;
41568;SDS011;27283;52.504;13.358;2023-08-31T14:23:14;5.63;;;1.90;;
41568;SDS011;27283;52.504;13.358;2023-08-31T14:25:49;4.25;;;1.60;;
41568;SDS011;27283;52.504;13.358;2023-08-31T14:28:31;2.67;;;1.63;;
41568;SDS011;27283;52.504;13.358;2023-08-31T14:31:04;2.83;;;1.35;;
41568;SDS011;27283;52.504;13.358;2023-08-31T14:33:44;2.95;;;1.00;;
41568;SDS011;27283;52.504;13.358;2023-08-31T14:36:19;1.75;;;1.00;;
41568;SDS011;27283;52.504;13.358;2023-08-31T14:38:56;1.70;;;1.00;;
41568;SDS011;27283;52.504;13.358;2023-08-31T14:41:51;1.17;;;0.88;;
41568;SDS011;27283;52.504;13.358;2023-08-31T14:44:25;2.33;;;1.40;;
41568;SDS011;27283;52.504;13.358;2023-08-31T14:47:00;1.40;;;0.68;;
41568;SDS011;27283;52.504;13.358;2023-08-31T14:49:38;2.42;;;0.80;;
41568;SDS011;27283;52.504;13.358;2023-08-31T14:52:16;2.72;;;0.82;;
41568;SDS011;27283;52.504;13.358;2023-08-31T14:54:50;1.70;;;0.80;;
41568;SDS011;27283;52.504;13.358;2023-08-31T14:57:25;2.50;;;0.65;;
41568;SDS011;27283;52.504;13.358;2023-08-31T14:59:57;3.22;;;0.98;;
41568;SDS011;27283;52.504;13.358;2023-08-31T15:02:31;3.20;;;0.90;;
41568;SDS011;27283;52.504;13.358;2023-08-31T15:05:08;1.88;;;1.00;;
41568;SDS011;27283;52.504;13.358;2023-08-31T15:07:43;1.92;;;1.00;;
41568;SDS011;27283;52.504;13.358;2023-08-31T15:10:16;4.18;;;1.23;;
41568;SDS011;27283;52.504;13.358;2023-08-31T15:12:49;2.97;;;1.30;;
41568;SDS011;27283;52.504;13.358;2023-08-31T15:18:19;2.65;;;1.20;;
41568;SDS011;27283;52.504;13.358;2023-08-31T15:20:54;3.95;;;1.20;;
41568;SDS011;27283;52.504;13.358;2023-08-31T15:23:26;3.33;;;1.65;;
41568;SDS011;27283;52.504;13.358;2023-08-31T15:25:59;4.20;;;1.35;;
41568;SDS011;27283;52.504;13.358;2023-08-31T15:28:32;2.40;;;1.10;;
41568;SDS011;27283;52.504;13.358;2023-08-31T15:31:07;2.67;;;1.40;;
41568;SDS011;27283;52.504;13.358;2023-08-31T15:33:41;3.72;;;1.58;;
41568;SDS011;27283;52.504;13.358;2023-08-31T15:36:18;3.70;;;1.50;;
41568;SDS011;27283;52.504;13.358;2023-08-31T15:38:54;3.40;;;1.10;;
41568;SDS011;27283;52.504;13.358;2023-08-31T15:41:28;4.07;;;1.50;;
41568;SDS011;27283;52.504;13.358;2023-08-31T15:44:07;2.80;;;1.20;;
41568;SDS011;27283;52.504;13.358;2023-08-31T15:46:41;3.53;;;1.25;;
41568;SDS011;27283;52.504;13.358;2023-08-31T15:49:21;2.13;;;1.05;;